Time;durP1;ratioP1;P1;durP2;ratioP2;P2;SDS_P1;SDS_P2;PMS_P1;PMS_P2;Temp;Humidity;BMP_temperature;BMP_pressure;BME280_temperature;BME280_humidity;BME280_pressure;Samples;Min_cycle;Max_cycle;Signal;HPM_P1;HPM_P2
2022/06/04 00:00:38;;;;;;;10.07;7.00;;;11.70;81.70;;;;;;5054061;28;20176;-85
2022/06/04 00:03:04;;;;;;;13.87;6.93;;;11.70;81.70;;;;;;5054120;28;20585;-85
2022/06/04 00:05:34;;;;;;;10.77;6.20;;;11.70;81.50;;;;;;5056308;28;20594;-86
2022/06/04 00:08:05;;;;;;;11.07;7.13;;;11.70;81.40;;;;;;5054814;28;20196;-85
2022/06/04 00:16:19;;;;;;;13.40;8.13;;;11.50;81.80;;;;;;5055995;28;20199;-85
2022/06/04 00:18:44;;;;;;;9.70;6.63;;;11.50;82.10;;;;;;5056148;28;20274;-85
2022/06/04 00:21:11;;;;;;;13.83;6.87;;;11.50;82.30;;;;;;5054498;28;20290;-85
2022/06/04 00:23:37;;;;;;;8.87;6.30;;;11.40;82.00;;;;;;5055639;28;20627;-85
2022/06/04 00:26:07;;;;;;;11.93;7.30;;;11.50;81.80;;;;;;5054631;28;20179;-86
2022/06/04 00:28:33;;;;;;;15.87;6.50;;;11.50;81.40;;;;;;5056350;28;20176;-87
2022/06/04 00:30:59;;;;;;;8.53;6.53;;;11.40;81.00;;;;;;5055155;28;20266;-87
2022/06/04 00:33:25;;;;;;;11.60;7.33;;;11.40;80.70;;;;;;5055386;28;20219;-85
2022/06/04 00:35:54;;;;;;;10.80;7.43;;;11.40;80.40;;;;;;5055654;28;20226;-85
2022/06/04 00:38:23;;;;;;;13.47;8.33;;;11.40;81.00;;;;;;5056524;28;20577;-85
2022/06/04 00:40:58;;;;;;;15.03;9.03;;;11.30;81.60;;;;;;5054855;28;20183;-85
2022/06/04 00:43:24;;;;;;;13.10;8.53;;;11.30;81.70;;;;;;5055987;28;20176;-85
2022/06/04 00:46:27;;;;;;;13.43;7.97;;;11.20;81.60;;;;;;5056951;28;20526;-85
2022/06/04 00:48:52;;;;;;;11.50;8.30;;;11.20;81.50;;;;;;5054988;28;20569;-86
2022/06/04 00:51:18;;;;;;;16.37;9.07;;;11.20;81.80;;;;;;5056365;28;20195;-86
2022/06/04 00:53:43;;;;;;;11.60;9.40;;;11.10;82.10;;;;;;5054452;28;20206;-86
2022/06/04 00:56:18;;;;;;;16.87;9.27;;;11.00;82.60;;;;;;5052378;28;20204;-86
2022/06/04 00:59:12;;;;;;;10.03;8.33;;;11.00;82.60;;;;;;5052729;28;20642;-87
2022/06/04 01:01:51;;;;;;;11.73;7.13;;;10.90;82.30;;;;;;5054450;28;20184;-86
2022/06/04 01:07:38;;;;;;;10.43;7.13;;;11.00;81.50;;;;;;5054634;28;20291;-86
2022/06/04 01:10:23;;;;;;;8.70;7.43;;;11.00;81.20;;;;;;5052772;28;20178;-86
2022/06/04 01:13:17;;;;;;;8.57;7.53;;;10.90;81.00;;;;;;5053092;28;20168;-86
2022/06/04 01:15:51;;;;;;;9.37;7.77;;;11.00;80.80;;;;;;5052719;28;20179;-87
2022/06/04 01:18:30;;;;;;;14.53;7.93;;;11.00;80.50;;;;;;5052714;28;20255;-86
2022/06/04 01:21:14;;;;;;;9.40;7.83;;;10.90;80.30;;;;;;5052765;28;20271;-87
2022/06/04 01:24:10;;;;;;;17.67;8.67;;;10.90;80.20;;;;;;5052715;28;20611;-86
2022/06/04 01:26:57;;;;;;;12.03;8.50;;;10.80;80.50;;;;;;5052632;28;20669;-87
2022/06/04 01:29:44;;;;;;;13.17;9.13;;;10.80;81.00;;;;;;5052231;28;20191;-87
2022/06/04 01:32:29;;;;;;;15.70;9.73;;;10.70;81.40;;;;;;5052513;28;20648;-87
2022/06/04 01:35:19;;;;;;;11.87;10.13;;;10.70;81.80;;;;;;5052366;28;20171;-86
2022/06/04 01:37:51;;;;;;;17.10;10.07;;;10.70;82.00;;;;;;5053761;28;20196;-87
2022/06/04 01:43:10;;;;;;;16.87;11.10;;;10.60;82.50;;;;;;5053729;28;20210;-86
2022/06/04 01:45:37;;;;;;;13.97;11.57;;;10.60;83.10;;;;;;5052598;28;20175;-87
2022/06/04 01:48:05;;;;;;;20.20;12.90;;;10.50;83.40;;;;;;5051825;28;20219;-87
2022/06/04 01:50:38;;;;;;;15.40;11.77;;;10.30;83.80;;;;;;5053299;28;20545;-86
2022/06/04 01:53:07;;;;;;;17.03;12.20;;;10.30;84.20;;;;;;5052063;28;20184;-86
2022/06/04 01:55:42;;;;;;;22.17;13.37;;;10.20;84.60;;;;;;5053215;28;20172;-86
2022/06/04 01:58:14;;;;;;;25.40;13.27;;;10.10;84.70;;;;;;5053308;28;20211;-86
2022/06/04 02:00:43;;;;;;;20.00;12.93;;;10.00;85.00;;;;;;5051983;28;20208;-87
2022/06/04 02:03:17;;;;;;;23.90;14.13;;;10.00;85.20;;;;;;5051811;28;20246;-86
2022/06/04 02:05:45;;;;;;;16.73;13.50;;;9.90;85.20;;;;;;5053270;28;20637;-87
2022/06/04 02:08:15;;;;;;;20.30;13.60;;;10.00;85.40;;;;;;5052094;28;20192;-86
2022/06/04 02:10:49;;;;;;;17.63;12.67;;;9.90;85.40;;;;;;5057406;28;20618;-87
2022/06/04 02:13:15;;;;;;;25.90;11.77;;;9.90;85.40;;;;;;5057319;28;20190;-86
2022/06/04 02:15:56;;;;;;;18.83;11.10;;;10.00;85.30;;;;;;5056954;28;20190;-87
2022/06/04 02:18:21;;;;;;;15.17;11.10;;;10.00;85.00;;;;;;5055852;28;20225;-86
2022/06/04 02:20:47;;;;;;;15.23;10.27;;;10.00;84.60;;;;;;5055705;28;20180;-86
2022/06/04 02:23:12;;;;;;;25.70;12.50;;;10.00;84.30;;;;;;5055942;28;20234;-86
2022/06/04 02:25:38;;;;;;;18.50;12.57;;;10.00;84.20;;;;;;5057126;28;20237;-86
2022/06/04 02:28:06;;;;;;;26.90;12.83;;;10.00;84.20;;;;;;5056821;28;20673;-86
2022/06/04 02:31:16;;;;;;;18.53;12.77;;;10.00;84.20;;;;;;5055415;28;20187;-87
2022/06/04 02:33:49;;;;;;;22.50;13.30;;;9.90;84.40;;;;;;5046244;28;20612;-86
2022/06/04 02:36:40;;;;;;;17.50;12.03;;;9.90;84.70;;;;;;5055330;28;20196;-87
2022/06/04 02:39:25;;;;;;;19.03;13.30;;;9.80;84.80;;;;;;5056101;28;20192;-87
2022/06/04 02:42:00;;;;;;;18.93;13.67;;;9.80;84.80;;;;;;5055157;28;20290;-86
2022/06/04 02:44:29;;;;;;;22.07;12.63;;;9.80;85.00;;;;;;5056465;28;20171;-86
2022/06/04 02:47:03;;;;;;;21.23;12.43;;;9.80;85.10;;;;;;5056689;28;20651;-87
2022/06/04 02:49:40;;;;;;;17.03;13.47;;;9.70;85.40;;;;;;5056563;28;20183;-86
2022/06/04 02:52:11;;;;;;;21.47;14.03;;;9.70;85.50;;;;;;5056629;28;20629;-87
2022/06/04 02:54:48;;;;;;;25.33;14.00;;;9.50;85.80;;;;;;5055204;28;20200;-86
2022/06/04 02:57:15;;;;;;;21.73;13.97;;;9.40;86.30;;;;;;5054988;28;20200;-87
2022/06/04 02:59:42;;;;;;;19.50;13.10;;;9.40;86.50;;;;;;5056224;28;20309;-86
2022/06/04 03:02:11;;;;;;;18.37;12.40;;;9.50;86.50;;;;;;5054869;28;20865;-86
2022/06/04 03:04:47;;;;;;;17.97;12.17;;;9.50;86.30;;;;;;5054862;28;20271;-86
2022/06/04 03:07:13;;;;;;;18.50;12.77;;;9.50;86.10;;;;;;5056268;28;20192;-86
2022/06/04 03:09:39;;;;;;;16.50;11.73;;;9.50;85.80;;;;;;5054745;28;20657;-86
2022/06/04 03:12:06;;;;;;;13.77;12.23;;;9.50;85.70;;;;;;5054775;28;20188;-87
2022/06/04 03:14:32;;;;;;;19.27;12.90;;;9.50;85.50;;;;;;5054594;28;20182;-86
2022/06/04 03:16:57;;;;;;;21.53;13.17;;;9.60;85.70;;;;;;5054578;28;20314;-86
2022/06/04 03:19:23;;;;;;;18.50;13.40;;;9.70;85.80;;;;;;5055696;28;20176;-86
2022/06/04 03:21:49;;;;;;;20.27;14.00;;;9.80;85.80;;;;;;5054381;28;20211;-87
2022/06/04 03:24:15;;;;;;;21.97;13.47;;;9.90;85.50;;;;;;5054602;28;20176;-87
2022/06/04 03:26:41;;;;;;;18.23;11.93;;;9.90;85.20;;;;;;5055654;28;20191;-86
2022/06/04 03:29:07;;;;;;;18.37;12.13;;;9.80;84.80;;;;;;5054272;28;20177;-87
2022/06/04 03:31:34;;;;;;;19.40;12.93;;;9.80;84.50;;;;;;5055362;28;20168;-86
2022/06/04 03:33:59;;;;;;;21.27;12.30;;;9.80;84.40;;;;;;5055717;28;20172;-86
2022/06/04 03:36:25;;;;;;;18.40;13.37;;;9.90;84.30;;;;;;5054404;28;20636;-86
2022/06/04 03:38:55;;;;;;;18.97;14.53;;;9.90;84.20;;;;;;5054280;28;20184;-86
2022/06/04 03:41:20;;;;;;;21.03;14.20;;;9.90;84.50;;;;;;5054188;28;20215;-86
2022/06/04 03:43:51;;;;;;;15.03;13.20;;;10.00;84.50;;;;;;5054176;28;20176;-87
2022/06/04 03:46:18;;;;;;;18.33;12.87;;;10.00;84.50;;;;;;5054279;28;20192;-86
2022/06/04 03:48:44;;;;;;;20.60;13.67;;;9.90;84.90;;;;;;5054104;28;20195;-86
2022/06/04 03:51:09;;;;;;;20.47;14.30;;;10.10;85.00;;;;;;5055253;28;20638;-87
2022/06/04 03:53:35;;;;;;;18.47;12.87;;;10.20;84.90;;;;;;5053929;28;20656;-86
2022/06/04 03:56:00;;;;;;;17.20;12.80;;;10.20;85.00;;;;;;5054246;28;20175;-86
2022/06/04 03:58:30;;;;;;;19.03;12.83;;;10.30;84.80;;;;;;5054023;28;20267;-87
2022/06/04 04:00:56;;;;;;;18.93;13.10;;;10.20;84.70;;;;;;5053743;28;20176;-86
2022/06/04 04:03:22;;;;;;;21.57;13.97;;;10.20;85.00;;;;;;5053906;28;20179;-86
2022/06/04 04:05:50;;;;;;;22.47;13.67;;;10.30;85.10;;;;;;5054919;28;20172;-86
2022/06/04 04:08:17;;;;;;;18.67;12.87;;;10.50;85.10;;;;;;5054938;28;20267;-87
2022/06/04 04:10:44;;;;;;;20.27;13.33;;;10.60;84.80;;;;;;5055052;28;20172;-86
2022/06/04 04:13:11;;;;;;;19.47;12.93;;;10.50;84.40;;;;;;5054817;28;20171;-87
2022/06/04 04:15:38;;;;;;;20.93;12.87;;;10.40;84.50;;;;;;5054772;28;20195;-86
2022/06/04 04:18:05;;;;;;;22.87;13.83;;;10.30;84.90;;;;;;5053628;28;20235;-86
2022/06/04 04:20:33;;;;;;;20.87;13.80;;;10.20;85.50;;;;;;5055079;28;20175;-87
2022/06/04 04:23:00;;;;;;;22.97;15.20;;;10.10;85.80;;;;;;5054611;28;20682;-86
2022/06/04 04:25:28;;;;;;;18.80;14.03;;;10.10;86.00;;;;;;5054799;28;20243;-87
2022/06/04 04:27:54;;;;;;;28.33;13.90;;;10.10;86.30;;;;;;5054555;28;20188;-87
2022/06/04 04:30:23;;;;;;;18.67;13.63;;;10.20;86.50;;;;;;5053164;28;20176;-86
2022/06/04 04:32:49;;;;;;;19.90;14.37;;;10.20;86.60;;;;;;5052517;28;20666;-86
2022/06/04 04:35:20;;;;;;;20.03;13.87;;;10.10;87.00;;;;;;5053209;28;20664;-86
2022/06/04 04:37:46;;;;;;;20.53;14.67;;;10.20;87.20;;;;;;5054530;28;20195;-86
2022/06/04 04:40:15;;;;;;;18.90;14.73;;;10.20;87.40;;;;;;5053037;28;20212;-86
2022/06/04 04:42:42;;;;;;;22.27;14.63;;;10.20;87.60;;;;;;5052996;28;20238;-87
2022/06/04 04:45:09;;;;;;;24.73;15.33;;;10.10;87.80;;;;;;5054593;28;20164;-86
2022/06/04 04:47:36;;;;;;;16.83;13.93;;;10.10;88.00;;;;;;5052904;28;20235;-86
2022/06/04 04:50:04;;;;;;;22.40;15.73;;;10.00;88.20;;;;;;5052979;28;20183;-87
2022/06/04 04:52:30;;;;;;;23.43;16.70;;;10.00;88.40;;;;;;5053006;28;20286;-87
2022/06/04 04:54:55;;;;;;;20.97;14.83;;;10.00;88.60;;;;;;5052779;28;20187;-86
2022/06/04 04:57:21;;;;;;;19.57;15.30;;;10.00;88.70;;;;;;5052562;28;20253;-86
2022/06/04 04:59:47;;;;;;;21.50;16.23;;;10.10;89.00;;;;;;5052628;28;20657;-87
2022/06/04 05:02:12;;;;;;;18.97;14.93;;;10.10;89.10;;;;;;5052454;28;20568;-86
2022/06/04 05:04:38;;;;;;;20.47;14.83;;;10.20;89.30;;;;;;5052463;28;20203;-86
2022/06/04 05:07:04;;;;;;;19.27;15.50;;;10.20;89.50;;;;;;5052476;28;20192;-86
2022/06/04 05:09:30;;;;;;;26.33;15.43;;;10.30;89.60;;;;;;5052575;28;20263;-86
2022/06/04 05:11:56;;;;;;;20.53;16.00;;;10.30;89.60;;;;;;5052548;28;20218;-86
2022/06/04 05:14:21;;;;;;;23.67;15.13;;;10.30;89.60;;;;;;5052564;28;20182;-86
2022/06/04 05:16:47;;;;;;;21.53;15.33;;;10.40;89.80;;;;;;5053551;28;20195;-87
2022/06/04 05:19:13;;;;;;;21.43;16.20;;;10.50;89.80;;;;;;5053568;28;20176;-86
2022/06/04 05:21:39;;;;;;;20.90;15.10;;;10.70;90.00;;;;;;5052309;28;20287;-87
2022/06/04 05:24:05;;;;;;;20.67;17.13;;;10.80;90.10;;;;;;5052279;28;20208;-87
2022/06/04 05:26:31;;;;;;;23.30;15.73;;;10.90;89.90;;;;;;5052029;28;20279;-87
2022/06/04 05:28:57;;;;;;;22.40;16.00;;;11.00;89.80;;;;;;5053412;28;20167;-86
2022/06/04 05:31:23;;;;;;;19.67;15.40;;;11.00;89.60;;;;;;5053514;28;20591;-86
2022/06/04 05:33:48;;;;;;;22.47;16.83;;;11.20;89.60;;;;;;5053626;28;20647;-86
2022/06/04 05:36:14;;;;;;;25.23;16.50;;;11.30;89.20;;;;;;5051969;28;20242;-86
2022/06/04 05:38:41;;;;;;;18.80;15.50;;;11.40;89.10;;;;;;5053397;28;20658;-86
2022/06/04 05:41:09;;;;;;;24.80;15.63;;;11.50;88.70;;;;;;5052231;28;20222;-86
2022/06/04 05:43:36;;;;;;;17.07;14.83;;;11.60;88.40;;;;;;5051906;28;20180;-87
2022/06/04 05:46:04;;;;;;;18.67;14.10;;;11.80;88.30;;;;;;5053498;28;20168;-87
2022/06/04 05:48:31;;;;;;;19.37;13.70;;;11.90;88.10;;;;;;5053236;28;20657;-87
2022/06/04 05:50:57;;;;;;;19.37;14.40;;;11.90;87.30;;;;;;5051956;28;20183;-86
2022/06/04 05:53:24;;;;;;;21.70;12.80;;;12.00;87.10;;;;;;5051947;28;20176;-86
2022/06/04 05:55:50;;;;;;;16.80;13.53;;;12.10;86.80;;;;;;5053162;28;20638;-86
2022/06/04 05:58:16;;;;;;;18.13;12.27;;;12.30;86.70;;;;;;5051827;28;20179;-86
2022/06/04 06:00:43;;;;;;;21.87;12.67;;;12.40;86.40;;;;;;5052107;28;20168;-86
2022/06/04 06:03:08;;;;;;;24.53;13.07;;;12.50;86.00;;;;;;5051675;28;20262;-86
2022/06/04 06:05:34;;;;;;;18.53;11.97;;;12.70;85.70;;;;;;5051945;28;20176;-86
2022/06/04 06:07:59;;;;;;;15.10;11.80;;;12.80;85.40;;;;;;5051776;28;20208;-86
2022/06/04 06:10:26;;;;;;;14.30;11.03;;;12.80;84.50;;;;;;5051829;28;20534;-86
2022/06/04 06:12:53;;;;;;;17.10;11.10;;;12.90;84.40;;;;;;5051693;28;20183;-86
2022/06/04 06:15:19;;;;;;;20.10;11.33;;;12.80;83.60;;;;;;5051619;28;20262;-86
2022/06/04 06:17:44;;;;;;;15.87;11.83;;;12.90;83.80;;;;;;5051787;28;20200;-86
2022/06/04 06:20:10;;;;;;;15.00;11.10;;;13.10;83.80;;;;;;5051864;28;20180;-86
2022/06/04 06:22:36;;;;;;;14.00;10.40;;;13.20;83.80;;;;;;5051613;28;20214;-87
2022/06/04 06:25:05;;;;;;;16.60;11.13;;;13.30;82.90;;;;;;5053097;28;20176;-87
2022/06/04 06:27:31;;;;;;;14.77;10.50;;;13.30;82.10;;;;;;5051602;28;20203;-87
2022/06/04 06:29:57;;;;;;;14.43;10.47;;;13.40;82.40;;;;;;5051542;28;20230;-87
2022/06/04 06:32:24;;;;;;;15.70;10.93;;;13.50;81.40;;;;;;5053164;28;20184;-87
2022/06/04 06:34:50;;;;;;;16.90;10.37;;;13.60;81.80;;;;;;5051437;28;20706;-87
2022/06/04 06:37:16;;;;;;;14.13;10.80;;;13.60;81.40;;;;;;5052789;28;20230;-87
2022/06/04 06:39:41;;;;;;;14.63;10.93;;;13.80;82.00;;;;;;5053030;28;20172;-87
2022/06/04 06:42:07;;;;;;;13.37;10.63;;;13.70;81.00;;;;;;5052800;28;20666;-87
2022/06/04 06:44:33;;;;;;;16.77;10.40;;;13.80;81.30;;;;;;5051647;28;20212;-87
2022/06/04 06:46:58;;;;;;;14.83;10.50;;;13.70;80.60;;;;;;5052409;28;20638;-86
2022/06/04 06:49:27;;;;;;;22.43;10.87;;;13.80;81.50;;;;;;5051552;28;20565;-86
2022/06/04 06:51:56;;;;;;;15.77;9.77;;;13.80;81.50;;;;;;5052782;28;20176;-87
2022/06/04 06:54:24;;;;;;;12.00;10.10;;;13.90;80.70;;;;;;5053278;28;20172;-86
2022/06/04 06:56:52;;;;;;;12.80;10.00;;;14.10;81.20;;;;;;5056252;28;20199;-86
2022/06/04 06:59:20;;;;;;;13.63;9.97;;;14.20;80.80;;;;;;5055658;28;20241;-87
2022/06/04 07:01:46;;;;;;;16.23;10.40;;;14.30;80.40;;;;;;5055106;28;20729;-86
2022/06/04 07:04:12;;;;;;;13.43;10.07;;;14.30;80.40;;;;;;5055115;28;20175;-86
2022/06/04 07:06:43;;;;;;;12.90;9.83;;;14.30;79.90;;;;;;5056455;28;20704;-87
2022/06/04 07:09:21;;;;;;;15.30;10.80;;;14.60;79.30;;;;;;5057307;28;20175;-86
2022/06/04 07:11:47;;;;;;;11.20;9.87;;;14.40;79.30;;;;;;5054875;28;20167;-87
2022/06/04 07:14:14;;;;;;;15.40;10.30;;;14.50;79.40;;;;;;5056047;28;20183;-86
2022/06/04 07:16:40;;;;;;;16.93;10.40;;;14.60;79.30;;;;;;5054564;28;20235;-87
2022/06/04 07:19:06;;;;;;;16.60;10.30;;;14.80;79.90;;;;;;5054794;28;20179;-86
2022/06/04 07:21:31;;;;;;;10.33;9.00;;;14.70;78.60;;;;;;5055961;28;20207;-86
2022/06/04 07:23:58;;;;;;;12.67;10.13;;;14.80;79.20;;;;;;5054587;28;20180;-86
2022/06/04 07:26:25;;;;;;;14.63;9.43;;;14.70;78.40;;;;;;5056234;28;20198;-86
2022/06/04 07:28:50;;;;;;;12.23;9.63;;;14.90;78.90;;;;;;5054637;28;20186;-86
2022/06/04 07:31:16;;;;;;;11.97;9.07;;;15.10;79.00;;;;;;5055687;28;20255;-87
2022/06/04 07:33:44;;;;;;;14.53;9.57;;;15.20;78.90;;;;;;5055992;28;20179;-86
2022/06/04 07:36:15;;;;;;;10.67;9.50;;;15.30;77.60;;;;;;5055657;28;20235;-88
2022/06/04 07:38:40;;;;;;;14.98;8.48;;;15.40;76.70;;;;;;5054655;28;20177;-87
2022/06/04 07:41:06;;;;;;;10.80;8.88;;;15.30;76.30;;;;;;5055471;28;20168;-87
2022/06/04 07:43:31;;;;;;;14.90;9.77;;;15.30;76.90;;;;;;5055623;28;20183;-87
2022/06/04 07:45:57;;;;;;;11.70;9.10;;;15.20;77.00;;;;;;5054271;28;20176;-88
2022/06/04 07:48:22;;;;;;;12.10;8.73;;;15.40;78.00;;;;;;5054306;28;20184;-87
2022/06/04 07:50:48;;;;;;;12.30;9.57;;;15.60;76.60;;;;;;5054341;28;20186;-86
2022/06/04 07:53:14;;;;;;;13.32;9.43;;;15.70;76.60;;;;;;5054223;28;20260;-87
2022/06/04 07:55:42;;;;;;;17.08;8.85;;;15.90;75.80;;;;;;5054289;28;20187;-87
2022/06/04 07:58:09;;;;;;;11.57;8.25;;;15.70;76.20;;;;;;5054199;28;20624;-87
2022/06/04 08:00:38;;;;;;;11.35;8.60;;;15.60;75.30;;;;;;5054197;28;20233;-88
2022/06/04 08:03:07;;;;;;;15.27;9.63;;;15.70;76.40;;;;;;5054173;28;20249;-87
2022/06/04 08:05:33;;;;;;;13.38;8.88;;;15.80;75.80;;;;;;5053986;28;20183;-87
2022/06/04 08:07:58;;;;;;;14.57;9.85;;;16.00;75.10;;;;;;5055210;28;20196;-88
2022/06/04 08:10:24;;;;;;;11.55;9.05;;;16.00;76.00;;;;;;5055639;28;20537;-87
2022/06/04 08:12:55;;;;;;;10.98;7.90;;;16.10;75.80;;;;;;5055319;28;20180;-87
2022/06/04 08:15:22;;;;;;;9.25;8.10;;;16.30;75.30;;;;;;5053678;28;20192;-87
2022/06/04 08:17:48;;;;;;;14.20;8.02;;;16.50;74.30;;;;;;5053598;28;20222;-86
2022/06/04 08:20:14;;;;;;;10.52;8.15;;;16.60;73.20;;;;;;5053647;28;20638;-87
2022/06/04 08:22:40;;;;;;;10.55;7.78;;;16.70;72.60;;;;;;5055249;28;20180;-87
2022/06/04 08:25:06;;;;;;;11.98;8.10;;;16.50;72.50;;;;;;5053606;28;20172;-87
2022/06/04 08:27:31;;;;;;;9.88;7.45;;;16.60;72.30;;;;;;5054051;28;20196;-87
2022/06/04 08:29:57;;;;;;;15.73;9.07;;;16.60;72.40;;;;;;5055005;28;20175;-86
2022/06/04 08:32:22;;;;;;;12.02;7.85;;;16.80;72.50;;;;;;5053416;28;20210;-87
2022/06/04 08:34:48;;;;;;;9.85;7.55;;;16.80;71.10;;;;;;5055075;28;20176;-86
2022/06/04 08:37:13;;;;;;;10.10;6.90;;;16.90;72.90;;;;;;5053279;28;20196;-87
2022/06/04 08:39:39;;;;;;;12.25;7.28;;;16.80;70.30;;;;;;5053654;28;20649;-87
2022/06/04 08:42:11;;;;;;;12.07;7.70;;;16.70;70.20;;;;;;5053289;28;20288;-87
2022/06/04 08:44:41;;;;;;;13.75;8.20;;;16.90;72.00;;;;;;5054995;28;20225;-87
2022/06/04 08:47:32;;;;;;;9.68;7.15;;;16.90;71.00;;;;;;5054655;28;20239;-87
2022/06/04 08:50:10;;;;;;;10.50;7.28;;;16.90;70.20;;;;;;5054592;28;20171;-87
2022/06/04 08:52:47;;;;;;;11.43;7.50;;;16.80;70.20;;;;;;5053187;28;20202;-87
2022/06/04 08:58:17;;;;;;;13.73;7.20;;;17.30;70.80;;;;;;5054442;28;20203;-88
2022/06/04 09:01:02;;;;;;;7.75;6.80;;;17.30;69.90;;;;;;5054055;28;20160;-88
2022/06/04 09:03:47;;;;;;;9.93;7.05;;;17.20;67.60;;;;;;5054498;28;20179;-87
2022/06/04 09:06:24;;;;;;;13.80;7.38;;;17.10;68.30;;;;;;5054404;28;20203;-88
2022/06/04 09:09:06;;;;;;;11.68;7.40;;;17.30;68.40;;;;;;5052544;28;20168;-88
2022/06/04 09:12:07;;;;;;;8.73;6.45;;;17.50;70.00;;;;;;5052670;28;20176;-87
2022/06/04 09:14:55;;;;;;;8.52;6.40;;;17.80;69.40;;;;;;5054230;28;20167;-87
2022/06/04 09:17:43;;;;;;;13.40;7.22;;;18.30;67.20;;;;;;5052232;28;20199;-86
2022/06/04 09:20:29;;;;;;;12.65;6.80;;;18.30;65.50;;;;;;5052473;28;20234;-86
2022/06/04 09:23:04;;;;;;;8.20;6.15;;;18.30;67.70;;;;;;5052368;28;20203;-86
2022/06/04 09:25:42;;;;;;;9.20;6.60;;;18.50;65.90;;;;;;5054033;28;20152;-87
2022/06/04 09:28:21;;;;;;;10.02;6.60;;;18.30;65.20;;;;;;5053860;28;20284;-88
2022/06/04 09:31:21;;;;;;;9.48;6.75;;;18.10;65.00;;;;;;5053385;28;20167;-86
2022/06/04 09:34:13;;;;;;;9.18;6.65;;;18.10;65.30;;;;;;5048677;28;20180;-87
2022/06/04 09:36:42;;;;;;;9.07;7.05;;;18.20;65.50;;;;;;5053079;28;20677;-87
2022/06/04 09:39:30;;;;;;;8.35;6.20;;;18.30;67.40;;;;;;5052717;28;20180;-87
2022/06/04 09:42:03;;;;;;;10.02;8.07;;;18.40;66.60;;;;;;5054163;28;20568;-87
2022/06/04 09:44:32;;;;;;;8.35;6.05;;;18.50;63.40;;;;;;5053592;28;20220;-88
2022/06/04 09:47:21;;;;;;;11.48;7.57;;;18.50;66.50;;;;;;5053710;28;20196;-88
2022/06/04 09:49:59;;;;;;;13.00;6.85;;;18.70;64.90;;;;;;5054034;28;20204;-86
2022/06/04 09:52:40;;;;;;;8.93;6.65;;;18.60;66.10;;;;;;5052392;28;20168;-87
2022/06/04 09:55:18;;;;;;;11.32;7.20;;;18.70;64.00;;;;;;5052305;28;20237;-87
2022/06/04 09:57:57;;;;;;;10.48;6.50;;;18.70;64.50;;;;;;5053429;28;20230;-87
2022/06/04 10:00:29;;;;;;;8.82;5.90;;;18.60;63.00;;;;;;5053433;28;20152;-86
2022/06/04 10:03:14;;;;;;;9.68;7.20;;;18.90;63.30;;;;;;5052373;28;20302;-87
2022/06/04 10:06:11;;;;;;;8.52;6.15;;;19.10;63.60;;;;;;5053420;28;20634;-86
2022/06/04 10:11:33;;;;;;;7.70;6.47;;;19.40;64.40;;;;;;5053415;28;20163;-86
2022/06/04 10:13:59;;;;;;;9.30;6.65;;;19.80;61.20;;;;;;5051971;28;20330;-88
2022/06/04 10:16:35;;;;;;;9.20;6.15;;;19.90;62.30;;;;;;5053384;28;20221;-87
2022/06/04 10:19:14;;;;;;;12.15;6.63;;;19.70;60.50;;;;;;5052302;28;20168;-87
2022/06/04 10:21:43;;;;;;;8.80;7.13;;;19.70;63.20;;;;;;5053592;28;20728;-87
2022/06/04 10:24:23;;;;;;;8.50;7.35;;;19.30;60.90;;;;;;5053258;28;20251;-87
2022/06/04 10:26:51;;;;;;;8.70;5.93;;;19.30;61.70;;;;;;5051954;28;20199;-87
2022/06/04 10:29:17;;;;;;;9.43;5.05;;;19.50;61.50;;;;;;5052371;28;20621;-87
2022/06/04 10:32:04;;;;;;;7.22;5.68;;;19.70;62.40;;;;;;5057056;28;20196;-87
2022/06/04 10:34:56;;;;;;;24.30;10.02;;;20.10;60.80;;;;;;5055928;28;20259;-87
2022/06/04 10:37:40;;;;;;;10.50;6.68;;;20.10;59.40;;;;;;5054989;28;20215;-87
2022/06/04 10:40:34;;;;;;;15.88;7.38;;;20.20;59.80;;;;;;5056919;28;20172;-87
2022/06/04 10:43:34;;;;;;;8.65;6.07;;;20.60;58.00;;;;;;5055276;28;20215;-87
2022/06/04 10:46:17;;;;;;;9.25;5.50;;;21.10;55.00;;;;;;5055682;28;20171;-87
2022/06/04 10:49:03;;;;;;;6.40;5.07;;;20.40;58.50;;;;;;5055842;28;20199;-88
2022/06/04 10:51:54;;;;;;;7.40;5.65;;;20.30;58.20;;;;;;5056140;28;20179;-88
2022/06/04 10:54:41;;;;;;;8.70;5.78;;;20.10;57.30;;;;;;5056788;28;20247;-88
2022/06/04 10:57:57;;;;;;;10.13;5.95;;;20.20;60.40;;;;;;5055781;28;20263;-87
2022/06/04 11:00:29;;;;;;;6.85;4.95;;;20.90;56.10;;;;;;5012143;28;20270;-89
2022/06/04 11:03:01;;;;;;;7.57;5.07;;;21.00;56.10;;;;;;5055639;28;20196;-88
2022/06/04 11:05:39;;;;;;;6.53;5.22;;;20.80;55.30;;;;;;5055651;28;20160;-88
2022/06/04 11:08:17;;;;;;;7.22;5.32;;;21.10;56.70;;;;;;5057069;28;20245;-88
2022/06/04 11:10:52;;;;;;;9.13;5.00;;;21.10;56.10;;;;;;5056856;28;20234;-88
2022/06/04 11:13:25;;;;;;;7.72;4.85;;;20.80;54.90;;;;;;5055766;28;20159;-88
2022/06/04 11:16:10;;;;;;;7.70;5.22;;;20.40;57.50;;;;;;5055259;28;20513;-87
2022/06/04 11:18:45;;;;;;;10.30;4.78;;;20.20;55.20;;;;;;5056724;28;20172;-89
2022/06/04 11:21:11;;;;;;;8.23;6.03;;;20.60;58.40;;;;;;5055362;28;20184;-88
2022/06/04 11:23:50;;;;;;;5.63;4.45;;;20.60;56.40;;;;;;5056330;28;20206;-88
2022/06/04 11:26:36;;;;;;;5.80;4.40;;;20.70;57.80;;;;;;5056800;28;20708;-88
2022/06/04 11:29:03;;;;;;;6.55;4.55;;;21.40;56.40;;;;;;5055220;28;20168;-88
2022/06/04 11:31:53;;;;;;;8.17;5.17;;;21.20;53.50;;;;;;5055819;28;20408;-89
2022/06/04 11:34:50;;;;;;;6.88;4.97;;;20.80;55.20;;;;;;5055716;28;20214;-88
2022/06/04 11:37:18;;;;;;;8.45;5.00;;;20.80;55.00;;;;;;5054961;28;20286;-88
2022/06/04 11:40:15;;;;;;;11.10;4.50;;;20.90;56.60;;;;;;5054746;28;20180;-86
2022/06/04 11:42:58;;;;;;;6.75;4.50;;;20.80;59.70;;;;;;5057044;28;20199;-86
2022/06/04 11:45:42;;;;;;;4.78;4.18;;;21.40;55.00;;;;;;5055979;28;20165;-86
2022/06/04 11:48:31;;;;;;;7.20;4.85;;;22.10;54.10;;;;;;5054783;28;20702;-86
2022/06/04 11:51:13;;;;;;;9.93;5.10;;;22.60;51.60;;;;;;5055848;28;20269;-86
2022/06/04 11:53:59;;;;;;;7.03;4.45;;;21.90;53.60;;;;;;5056560;28;20164;-86
2022/06/04 11:57:03;;;;;;;6.82;4.95;;;21.50;53.90;;;;;;5054776;28;20214;-87
2022/06/04 11:59:40;;;;;;;6.70;5.03;;;21.70;54.50;;;;;;5056127;28;20187;-86
2022/06/04 12:02:19;;;;;;;7.07;4.68;;;22.20;52.80;;;;;;5054191;28;20199;-87
2022/06/04 12:04:58;;;;;;;6.63;4.70;;;22.30;51.40;;;;;;5054187;28;20160;-87
2022/06/04 12:07:38;;;;;;;6.72;5.05;;;21.80;53.20;;;;;;5055292;28;20419;-87
2022/06/04 12:10:40;;;;;;;7.50;4.63;;;21.70;54.90;;;;;;5055994;28;20168;-87
2022/06/04 12:13:20;;;;;;;6.47;4.55;;;22.00;51.60;;;;;;5055538;28;20166;-89
2022/06/04 12:16:03;;;;;;;7.75;4.75;;;21.80;55.10;;;;;;5054319;28;20163;-86
2022/06/04 12:19:05;;;;;;;5.80;4.90;;;22.20;53.10;;;;;;5055626;28;20218;-87
2022/06/04 12:24:35;;;;;;;6.75;3.92;;;22.70;52.40;;;;;;5055525;28;20214;-87
2022/06/04 12:27:19;;;;;;;11.77;4.85;;;22.80;52.60;;;;;;5055230;28;20227;-86
2022/06/04 12:29:48;;;;;;;5.75;4.38;;;22.80;52.60;;;;;;5054658;28;20164;-87
2022/06/04 12:32:29;;;;;;;6.78;5.28;;;22.80;51.50;;;;;;5055021;28;20234;-87
2022/06/04 12:35:11;;;;;;;7.00;5.07;;;22.70;49.30;;;;;;5055537;28;20188;-87
2022/06/04 12:37:43;;;;;;;6.25;4.47;;;22.80;49.20;;;;;;5054335;28;20192;-87
2022/06/04 12:40:23;;;;;;;7.60;4.85;;;23.10;51.80;;;;;;5054812;28;20192;-87
2022/06/04 12:43:00;;;;;;;6.35;5.22;;;23.10;52.00;;;;;;5055581;28;20283;-86
2022/06/04 12:45:40;;;;;;;10.73;5.15;;;22.50;51.80;;;;;;5054066;28;20184;-87
2022/06/04 12:48:25;;;;;;;8.65;5.20;;;22.20;52.90;;;;;;5053201;28;20208;-86
2022/06/04 12:51:03;;;;;;;5.30;4.65;;;22.50;54.40;;;;;;5053521;28;20271;-87
2022/06/04 12:53:31;;;;;;;7.18;5.20;;;22.90;51.60;;;;;;5052350;28;20168;-86
2022/06/04 12:56:06;;;;;;;10.07;4.88;;;22.80;51.50;;;;;;5054515;28;20176;-86
2022/06/04 12:58:47;;;;;;;5.72;4.53;;;23.10;53.80;;;;;;5053231;28;20173;-86
2022/06/04 13:01:13;;;;;;;7.68;4.00;;;23.60;49.80;;;;;;5053263;28;20164;-86
2022/06/04 13:03:43;;;;;;;5.95;3.65;;;23.60;52.60;;;;;;5053701;28;20672;-86
2022/06/04 13:06:14;;;;;;;5.68;4.47;;;24.30;49.40;;;;;;5053316;28;20214;-86
2022/06/04 13:08:51;;;;;;;8.55;4.00;;;24.00;50.50;;;;;;5053829;28;20660;-86
2022/06/04 13:11:55;;;;;;;6.22;4.32;;;24.00;50.80;;;;;;5053587;28;20163;-87
2022/06/04 13:14:33;;;;;;;8.48;4.80;;;23.50;48.80;;;;;;5024349;28;20188;-86
2022/06/04 13:17:24;;;;;;;7.63;3.92;;;23.00;48.80;;;;;;5053319;28;20202;-87
2022/06/04 13:20:02;;;;;;;5.90;4.10;;;23.30;47.40;;;;;;5053454;28;20640;-87
2022/06/04 13:22:33;;;;;;;6.82;4.45;;;22.80;50.50;;;;;;5053291;28;20196;-86
2022/06/04 13:25:05;;;;;;;6.70;3.97;;;22.40;51.90;;;;;;5053414;28;20171;-87